< < Back
Terminal Aerodrome Forecast


Current Version              Previous Versions:   1  2  3  4  5  6  7  8  9  

Terminal Aerodrome Forecast

025
FTUS42 KCAE 220900 AAB
TAFCAE
TAF AMD
KCAE 220902Z 2209/2306 05006KT 5SM -DZ BR OVC007
     FM221300 04006KT 4SM -DZ BR OVC007
     FM221800 04005KT 4SM -DZ BR OVC012
     FM230200 05003KT 2SM BR OVC007=

Latest METAR

482
SAUS80 KWBC 220900 RRA
MTRCAE
METAR KCAE 220856Z 03006KT 5SM BR OVC005 07/06 A3008 RMK AO2 CIG 003V009
SLP186 60009 T00720061 58012


USA.gov is the U.S. government's official web portal to all federal, state and local government web resources and services.